createdAt,value
2018-09-04T00:01:36.597Z,99.90
2018-09-04T00:04:17.347Z,99.90
2018-09-04T00:06:57.876Z,99.90
2018-09-04T00:09:38.643Z,99.90
2018-09-04T00:12:19.552Z,99.90
2018-09-04T00:14:47.955Z,99.90
2018-09-04T00:17:17.364Z,99.90
2018-09-04T00:19:45.561Z,99.90
2018-09-04T00:22:13.766Z,99.90
2018-09-04T00:24:53.989Z,99.90
2018-09-04T00:27:35.534Z,99.90
2018-09-04T00:30:08.824Z,99.90
2018-09-04T00:32:37.093Z,99.90
2018-09-04T00:35:05.672Z,99.90
2018-09-04T00:37:46.649Z,99.90
2018-09-04T00:40:14.848Z,99.90
2018-09-04T00:42:48.590Z,99.90
2018-09-04T00:45:29.730Z,99.90
2018-09-04T00:48:10.512Z,99.90
2018-09-04T00:50:51.772Z,99.90
2018-09-04T00:53:32.809Z,99.90
2018-09-04T00:56:01.017Z,99.90
2018-09-04T00:58:41.258Z,99.90
2018-09-04T01:01:21.814Z,99.90
2018-09-04T01:04:02.393Z,99.90
2018-09-04T01:06:42.992Z,99.90
2018-09-04T01:09:23.735Z,99.90
2018-09-04T01:12:04.299Z,99.90
2018-09-04T01:14:45.169Z,99.90
2018-09-04T01:17:25.953Z,99.90
2018-09-04T01:20:06.498Z,99.90
2018-09-04T01:22:47.177Z,99.90
2018-09-04T01:25:27.865Z,99.90
2018-09-04T01:28:09.573Z,99.90
2018-09-04T01:30:37.940Z,99.90
2018-09-04T01:33:18.095Z,99.90
2018-09-04T01:35:47.345Z,99.90
2018-09-04T01:38:21.076Z,99.90
2018-09-04T01:40:49.340Z,99.90
2018-09-04T01:43:20.582Z,99.90
2018-09-04T01:45:54.249Z,99.90
2018-09-04T01:48:26.234Z,99.90
2018-09-04T01:50:54.468Z,99.90
2018-09-04T01:53:35.332Z,99.90
2018-09-04T01:56:16.139Z,99.90
2018-09-04T01:58:56.856Z,99.90
2018-09-04T02:01:37.755Z,99.90
2018-09-04T02:04:18.234Z,99.90
2018-09-04T02:06:58.979Z,99.90
2018-09-04T02:09:39.526Z,99.90
2018-09-04T02:12:20.178Z,99.90
2018-09-04T02:15:00.831Z,99.90
2018-09-04T02:17:29.052Z,99.90
2018-09-04T02:20:09.236Z,99.90
2018-09-04T02:22:37.525Z,99.90
2018-09-04T02:25:18.519Z,99.90
2018-09-04T02:27:59.319Z,99.90
2018-09-04T02:30:39.772Z,99.90
2018-09-04T02:33:20.436Z,99.90
2018-09-04T02:35:48.637Z,99.90
2018-09-04T02:38:16.857Z,99.90
2018-09-04T02:40:45.055Z,99.90
2018-09-04T02:43:26.122Z,99.90
2018-09-04T02:46:06.864Z,99.90
2018-09-04T02:48:47.425Z,99.90
2018-09-04T02:51:17.666Z,99.90
2018-09-04T02:53:45.901Z,99.90
2018-09-04T02:56:14.145Z,99.90
2018-09-04T02:58:43.067Z,99.90
2018-09-04T03:01:23.403Z,99.90
2018-09-04T03:03:54.749Z,99.90
2018-09-04T03:06:22.927Z,99.90
2018-09-04T03:08:51.075Z,99.90
2018-09-04T03:11:19.301Z,99.90
2018-09-04T03:14:00.296Z,99.90
2018-09-04T03:16:28.394Z,99.90
2018-09-04T03:18:56.646Z,99.90
2018-09-04T03:21:37.608Z,99.90
2018-09-04T03:24:18.236Z,99.90
2018-09-04T03:26:58.940Z,99.90
2018-09-04T03:29:39.718Z,99.90
2018-09-04T03:32:07.941Z,99.90
2018-09-04T03:34:36.213Z,99.90
2018-09-04T03:37:04.461Z,99.90
2018-09-04T03:39:45.534Z,99.90
2018-09-04T03:42:26.334Z,99.90
2018-09-04T03:45:07.082Z,99.90
2018-09-04T03:47:47.537Z,99.90
2018-09-04T03:50:28.172Z,99.90
2018-09-04T03:53:08.786Z,99.90
2018-09-04T03:55:49.340Z,99.90
2018-09-04T03:58:17.518Z,99.90
2018-09-04T04:00:57.735Z,99.90
2018-09-04T04:03:38.304Z,99.90
2018-09-04T04:06:06.516Z,99.90
2018-09-04T04:08:46.740Z,99.90
2018-09-04T04:11:27.496Z,99.90
2018-09-04T04:13:55.676Z,99.90
2018-09-04T04:16:24.566Z,99.90
2018-09-04T04:19:05.665Z,99.90
2018-09-04T04:21:46.493Z,99.90
2018-09-04T04:24:27.194Z,99.90
2018-09-04T04:27:07.746Z,99.90
2018-09-04T04:29:48.403Z,99.90
2018-09-04T04:32:16.671Z,99.90
2018-09-04T04:34:57.933Z,99.90
2018-09-04T04:37:38.434Z,99.90
2018-09-04T04:40:18.714Z,99.90
2018-09-04T04:42:59.353Z,99.90
2018-09-04T04:45:40.680Z,99.90
2018-09-04T04:48:08.927Z,99.90
2018-09-04T04:50:49.362Z,99.90
2018-09-04T04:53:29.979Z,99.90
2018-09-04T04:56:10.836Z,99.90
2018-09-04T04:58:39.081Z,99.90
2018-09-04T05:01:07.783Z,99.90
2018-09-04T05:03:36.434Z,99.90
2018-09-04T05:06:17.353Z,99.90
2018-09-04T05:08:57.864Z,99.90
2018-09-04T05:11:38.860Z,99.90
2018-09-04T05:14:07.175Z,99.90
2018-09-04T05:16:47.817Z,99.90
2018-09-04T05:19:28.403Z,99.90
2018-09-04T05:21:57.553Z,99.90
2018-09-04T05:24:37.722Z,99.90
2018-09-04T05:27:05.896Z,99.90
2018-09-04T05:29:46.169Z,99.90
2018-09-04T05:32:48.287Z,99.90
2018-09-04T05:35:16.534Z,99.90
2018-09-04T05:37:56.932Z,99.90
2018-09-04T05:40:37.563Z,99.90
2018-09-04T05:43:07.575Z,99.90
2018-09-04T05:45:47.872Z,99.90
2018-09-04T05:48:28.545Z,99.90
2018-09-04T05:51:09.097Z,99.90
2018-09-04T05:53:49.744Z,99.90
2018-09-04T05:56:30.455Z,99.90
2018-09-04T05:59:11.060Z,99.90
2018-09-04T06:01:51.635Z,99.90
2018-09-04T06:04:32.254Z,99.90
2018-09-04T06:07:13.005Z,99.90
2018-09-04T06:09:53.508Z,99.90
2018-09-04T06:12:34.191Z,99.90
2018-09-04T06:15:15.013Z,99.90
2018-09-04T06:17:43.280Z,99.90
2018-09-04T06:20:23.459Z,99.90
2018-09-04T06:23:04.416Z,99.90
2018-09-04T06:25:32.625Z,99.90
2018-09-04T06:28:12.951Z,99.90
2018-09-04T06:30:53.534Z,99.90
2018-09-04T06:33:34.487Z,99.90
2018-09-04T06:36:14.938Z,99.90
2018-09-04T06:38:55.718Z,99.90
2018-09-04T06:41:36.332Z,99.90
2018-09-04T06:44:16.956Z,99.90
2018-09-04T06:46:46.661Z,99.90
2018-09-04T06:49:27.416Z,99.90
2018-09-04T06:51:55.669Z,99.90
2018-09-04T06:54:36.032Z,99.90
2018-09-04T06:57:16.473Z,99.90
2018-09-04T06:59:49.649Z,99.90
2018-09-04T07:02:30.675Z,99.90
2018-09-04T07:05:12.029Z,99.90
2018-09-04T07:07:41.266Z,99.90
2018-09-04T07:10:21.414Z,99.90
2018-09-04T07:12:49.747Z,99.90
2018-09-04T07:15:30.803Z,99.90
2018-09-04T07:17:58.993Z,99.90
2018-09-04T07:20:28.964Z,99.90
2018-09-04T07:23:09.120Z,99.90
2018-09-04T07:25:37.305Z,99.90
2018-09-04T07:28:11.026Z,99.90
2018-09-04T07:30:39.231Z,99.90
2018-09-04T07:33:19.971Z,99.90
2018-09-04T07:36:00.550Z,99.90
2018-09-04T07:38:28.769Z,99.90
2018-09-04T07:40:57.008Z,99.90
2018-09-04T07:43:25.196Z,99.90
2018-09-04T07:46:05.468Z,99.90
2018-09-04T07:48:46.129Z,99.90
2018-09-04T07:51:27.123Z,99.90
2018-09-04T07:53:55.310Z,99.90
2018-09-04T07:56:35.577Z,99.90
2018-09-04T07:59:16.127Z,99.90
2018-09-04T08:01:56.851Z,99.90
2018-09-04T08:04:25.038Z,99.90
2018-09-04T08:06:53.246Z,99.90
2018-09-04T08:09:34.142Z,99.90
2018-09-04T08:12:14.690Z,99.90
2018-09-04T08:14:42.895Z,99.90
2018-09-04T08:17:23.224Z,99.90
2018-09-04T08:20:03.784Z,99.90
2018-09-04T08:22:44.288Z,99.90
2018-09-04T08:25:25.703Z,99.90
2018-09-04T08:28:06.369Z,99.90
2018-09-04T08:30:46.981Z,99.90
2018-09-04T08:33:27.690Z,99.90
2018-09-04T08:36:08.561Z,99.90
2018-09-04T08:38:49.503Z,99.90
2018-09-04T08:41:17.933Z,99.90
2018-09-04T08:43:58.823Z,99.90
2018-09-04T08:46:39.456Z,99.90
2018-09-04T08:49:19.917Z,99.90
2018-09-04T08:51:48.121Z,99.90
2018-09-04T08:54:28.441Z,99.90
2018-09-04T08:57:09.161Z,99.90
2018-09-04T08:59:43.324Z,99.90
2018-09-04T09:02:23.609Z,99.90
2018-09-04T09:04:51.796Z,99.90
2018-09-04T09:07:23.567Z,99.90
2018-09-04T09:10:03.731Z,99.90
2018-09-04T09:12:44.371Z,99.90
2018-09-04T09:15:12.652Z,99.90
2018-09-04T09:17:52.871Z,99.90
2018-09-04T09:20:33.442Z,99.90
2018-09-04T09:23:14.310Z,99.90
2018-09-04T09:25:42.497Z,99.90
2018-09-04T09:28:23.395Z,99.90
2018-09-04T09:31:04.201Z,99.90
2018-09-04T09:33:32.400Z,99.90
2018-09-04T09:36:12.848Z,99.90
2018-09-04T09:38:53.544Z,99.90
2018-09-04T09:41:21.774Z,99.90
2018-09-04T09:44:02.675Z,99.90
2018-09-04T09:46:43.428Z,99.90
2018-09-04T09:49:24.159Z,99.90
2018-09-04T09:52:04.743Z,99.90
2018-09-04T09:54:32.959Z,99.30
2018-09-04T09:57:13.326Z,98.50
2018-09-04T09:59:53.933Z,98.50
2018-09-04T10:04:41.517Z,99.00
2018-09-04T10:07:19.160Z,97.40
2018-09-04T10:09:47.470Z,97.00
2018-09-04T10:12:27.616Z,96.90
2018-09-04T10:14:55.836Z,96.80
2018-09-04T10:17:27.905Z,95.60
2018-09-04T10:19:59.732Z,95.90
2018-09-04T10:22:27.844Z,95.80
2018-09-04T10:25:09.308Z,95.60
2018-09-04T10:27:49.482Z,94.20
2018-09-04T10:30:30.218Z,93.90
2018-09-04T10:33:10.767Z,89.90
2018-09-04T10:35:51.369Z,80.50
2018-09-04T10:38:31.838Z,70.10
2018-09-04T10:41:01.030Z,65.20
2018-09-04T10:43:34.905Z,56.20
2018-09-04T10:46:10.687Z,52.10
2018-09-04T10:48:50.875Z,45.80
2018-09-04T10:51:31.576Z,45.20
2018-09-04T10:53:59.791Z,46.00
2018-09-04T10:56:39.978Z,49.00
2018-09-04T10:59:20.616Z,50.60
2018-09-04T11:01:48.867Z,53.00
2018-09-04T11:04:17.195Z,53.10
2018-09-04T11:06:45.414Z,54.80
2018-09-04T11:09:13.733Z,54.60
2018-09-04T11:11:42.707Z,52.30
2018-09-04T11:14:11.028Z,47.50
2018-09-04T11:16:46.876Z,42.50
2018-09-04T11:19:15.127Z,40.50
2018-09-04T11:21:49.576Z,38.70
2018-09-04T11:24:22.364Z,36.80
2018-09-04T11:26:52.190Z,37.70
2018-09-04T11:29:21.115Z,38.70
2018-09-04T11:31:49.371Z,36.80
2018-09-04T11:34:17.544Z,32.10
2018-09-04T11:36:45.742Z,30.20
2018-09-04T11:39:26.200Z,30.50
2018-09-04T11:42:06.873Z,30.70
2018-09-04T11:44:35.618Z,31.10
2018-09-04T11:47:16.303Z,30.60
2018-09-04T11:49:44.561Z,29.80
2018-09-04T11:52:25.694Z,28.50
2018-09-04T11:55:06.157Z,27.80
2018-09-04T11:57:35.382Z,27.60
2018-09-04T12:00:04.080Z,27.70
2018-09-04T12:02:34.762Z,27.10
2018-09-04T12:05:15.251Z,27.70
2018-09-04T12:07:55.981Z,28.70
2018-09-04T12:10:36.537Z,29.70
2018-09-04T12:13:04.944Z,31.10
2018-09-04T12:15:46.034Z,32.20
2018-09-04T12:18:14.246Z,32.90
2018-09-04T12:20:43.999Z,33.60
2018-09-04T12:23:24.014Z,35.00
2018-09-04T12:25:53.564Z,35.90
2018-09-04T12:28:21.793Z,37.10
2018-09-04T12:32:25.613Z,37.40
2018-09-04T12:35:06.437Z,37.40
2018-09-04T12:37:34.631Z,39.30
2018-09-04T12:40:14.885Z,41.20
2018-09-04T12:42:43.756Z,42.30
2018-09-04T12:45:24.581Z,43.50
2018-09-04T12:48:05.563Z,44.40
2018-09-04T12:50:35.930Z,44.50
2018-09-04T12:53:16.306Z,44.40
2018-09-04T12:55:57.614Z,43.80
2018-09-04T12:58:29.744Z,43.40
2018-09-04T13:01:09.983Z,42.10
2018-09-04T13:03:50.824Z,40.50
2018-09-04T13:06:31.624Z,40.00
2018-09-04T13:09:12.492Z,40.30
2018-09-04T13:11:53.151Z,41.10
2018-09-04T13:14:34.041Z,41.20
2018-09-04T13:17:05.684Z,42.60
2018-09-04T13:19:46.890Z,43.60
2018-09-04T13:22:16.473Z,43.60
2018-09-04T13:24:57.474Z,43.50
2018-09-04T13:27:25.648Z,43.90
2018-09-04T13:30:06.566Z,44.10
2018-09-04T13:32:47.047Z,43.10
2018-09-04T13:35:21.778Z,42.20
2018-09-04T13:38:02.539Z,42.70
2018-09-04T13:40:30.723Z,42.90
2018-09-04T13:42:58.929Z,42.60
2018-09-04T13:45:40.004Z,42.90
2018-09-04T13:48:08.237Z,42.80
2018-09-04T13:50:48.594Z,42.90
2018-09-04T13:53:16.838Z,44.40
2018-09-04T13:55:57.645Z,45.80
2018-09-04T13:58:25.974Z,45.90
2018-09-04T14:00:54.273Z,46.60
2018-09-04T14:03:35.366Z,47.30
2018-09-04T14:06:16.086Z,46.20
2018-09-04T14:08:58.043Z,46.30
2018-09-04T14:11:38.873Z,47.10
2018-09-04T14:14:19.939Z,46.90
2018-09-04T14:16:48.198Z,47.10
2018-09-04T14:19:28.294Z,46.90
2018-09-04T14:22:29.131Z,45.50
2018-09-04T14:24:57.388Z,44.70
2018-09-04T14:27:25.714Z,44.20
2018-09-04T14:32:35.552Z,41.30
2018-09-04T14:35:16.654Z,41.80
2018-09-04T14:37:45.008Z,41.30
2018-09-04T14:40:25.206Z,41.70
2018-09-04T14:43:06.077Z,42.70
2018-09-04T14:45:46.663Z,43.70
2018-09-04T14:48:27.168Z,43.90
2018-09-04T14:51:09.459Z,44.70
2018-09-04T14:53:50.025Z,45.40
2018-09-04T14:56:30.585Z,46.00
2018-09-04T14:59:11.329Z,46.50
2018-09-04T15:01:39.676Z,46.90
2018-09-04T15:04:20.552Z,47.20
2018-09-04T15:06:48.841Z,47.00
2018-09-04T15:09:17.317Z,47.10
2018-09-04T15:11:57.959Z,47.10
2018-09-04T15:14:26.373Z,47.20
2018-09-04T15:16:56.285Z,47.40
2018-09-04T15:19:30.048Z,46.80
2018-09-04T15:21:58.593Z,47.10
2018-09-04T15:24:27.080Z,46.70
2018-09-04T15:26:55.505Z,46.50
2018-09-04T15:29:23.770Z,45.80
2018-09-04T15:31:52.248Z,45.70
2018-09-04T15:34:32.856Z,45.90
2018-09-04T15:37:01.503Z,45.90
2018-09-04T15:39:42.613Z,45.40
2018-09-04T15:42:23.221Z,44.90
2018-09-04T15:45:03.676Z,45.40
2018-09-04T15:47:44.555Z,45.40
2018-09-04T15:50:12.886Z,45.80
2018-09-04T15:52:53.895Z,46.30
2018-09-04T15:55:22.203Z,46.60
2018-09-04T15:57:50.539Z,46.40
2018-09-04T16:00:31.029Z,45.30
2018-09-04T16:03:11.474Z,44.70
2018-09-04T16:05:39.891Z,44.90
2018-09-04T16:08:20.799Z,45.50
2018-09-04T16:11:01.161Z,45.70
2018-09-04T16:13:41.801Z,45.80
2018-09-04T16:16:10.064Z,45.90
2018-09-04T16:18:51.063Z,46.30
2018-09-04T16:21:31.641Z,46.10
2018-09-04T16:24:00.124Z,46.20
2018-09-04T16:26:40.919Z,46.60
2018-09-04T16:29:21.721Z,46.60
2018-09-04T16:31:53.314Z,47.20
2018-09-04T16:34:24.091Z,47.30
2018-09-04T16:36:52.612Z,47.70
2018-09-04T16:39:21.009Z,47.60
2018-09-04T16:41:50.473Z,48.00
2018-09-04T16:44:21.809Z,47.90
2018-09-04T16:46:57.972Z,48.00
2018-09-04T16:49:32.688Z,48.40
2018-09-04T16:52:01.401Z,48.50
2018-09-04T16:54:29.824Z,48.80
2018-09-04T16:56:58.276Z,48.60
2018-09-04T16:59:26.605Z,48.60
2018-09-04T17:01:54.853Z,49.00
2018-09-04T17:04:23.107Z,49.20
2018-09-04T17:06:51.491Z,49.20
2018-09-04T17:09:21.237Z,49.10
2018-09-04T17:11:49.615Z,48.90
2018-09-04T17:14:30.167Z,48.90
2018-09-04T17:18:40.031Z,49.10
2018-09-04T17:21:08.421Z,49.30
2018-09-04T17:23:49.085Z,49.50
2018-09-04T17:26:29.811Z,49.50
2018-09-04T17:28:58.738Z,50.00
2018-09-04T17:31:32.422Z,50.00
2018-09-04T17:34:12.828Z,50.10
2018-09-04T17:36:41.137Z,50.10
2018-09-04T17:39:09.731Z,50.50
2018-09-04T17:41:50.055Z,50.90
2018-09-04T17:44:30.792Z,51.80
2018-09-04T17:46:59.056Z,52.50
2018-09-04T17:49:27.319Z,52.90
2018-09-04T17:51:55.629Z,53.50
2018-09-04T17:54:23.885Z,53.90
2018-09-04T17:56:52.129Z,54.40
2018-09-04T17:59:20.565Z,55.00
2018-09-04T18:01:48.846Z,55.50
2018-09-04T18:04:17.068Z,56.30
2018-09-04T18:06:45.357Z,56.80
2018-09-04T18:09:26.380Z,57.10
2018-09-04T18:11:59.656Z,58.00
2018-09-04T18:14:40.707Z,58.50
2018-09-04T18:17:09.878Z,59.20
2018-09-04T18:19:50.081Z,59.70
2018-09-04T18:22:23.751Z,60.10
2018-09-04T18:24:52.840Z,60.90
2018-09-04T18:27:33.037Z,61.60
2018-09-04T18:30:02.256Z,62.40
2018-09-04T18:32:30.561Z,63.10
2018-09-04T18:34:59.827Z,63.50
2018-09-04T18:37:40.986Z,64.40
2018-09-04T18:40:21.510Z,64.50
2018-09-04T18:42:49.815Z,64.60
2018-09-04T18:45:30.865Z,64.90
2018-09-04T18:47:59.208Z,65.10
2018-09-04T18:50:34.205Z,65.60
2018-09-04T18:53:02.459Z,65.70
2018-09-04T18:55:43.417Z,66.40
2018-09-04T18:58:13.843Z,67.50
2018-09-04T19:00:43.430Z,67.80
2018-09-04T19:03:11.760Z,69.10
2018-09-04T19:05:52.309Z,70.20
2018-09-04T19:08:20.624Z,71.40
2018-09-04T19:10:54.855Z,72.40
2018-09-04T19:13:23.204Z,73.20
2018-09-04T19:15:53.459Z,74.20
2018-09-04T19:18:22.134Z,75.00
2018-09-04T19:21:03.069Z,75.90
2018-09-04T19:23:43.712Z,76.90
2018-09-04T19:26:24.801Z,77.90
2018-09-04T19:29:06.000Z,78.40
2018-09-04T19:31:46.543Z,79.10
2018-09-04T19:34:27.122Z,80.20
2018-09-04T19:37:07.689Z,82.10
2018-09-04T19:39:36.239Z,82.40
2018-09-04T19:49:02.599Z,85.30
2018-09-04T19:51:30.893Z,90.60
2018-09-04T19:54:11.904Z,91.90
2018-09-04T19:56:40.193Z,93.30
2018-09-04T19:59:08.674Z,94.90
2018-09-04T20:01:49.790Z,96.60
2018-09-04T20:04:30.507Z,98.20
2018-09-04T20:07:11.151Z,99.90
2018-09-04T20:09:52.005Z,99.90
2018-09-04T20:12:32.447Z,99.90
2018-09-04T20:15:00.727Z,99.90
2018-09-04T20:17:42.153Z,99.90
2018-09-04T20:20:10.484Z,99.90
2018-09-04T20:22:38.806Z,99.90
2018-09-04T20:25:07.157Z,99.90
2018-09-04T20:27:47.791Z,99.90
2018-09-04T20:30:16.152Z,99.90
2018-09-04T20:32:57.319Z,99.90
2018-09-04T20:35:37.780Z,99.90
2018-09-04T20:38:06.084Z,99.90
2018-09-04T20:40:34.654Z,99.90
2018-09-04T20:43:15.608Z,99.90
2018-09-04T20:45:43.904Z,99.90
2018-09-04T20:48:12.220Z,99.90
2018-09-04T20:50:52.860Z,99.90
2018-09-04T20:53:33.411Z,99.90
2018-09-04T20:56:13.958Z,99.90
2018-09-04T20:58:54.618Z,99.90
2018-09-04T21:01:37.447Z,99.90
2018-09-04T21:04:17.798Z,99.90
2018-09-04T21:06:58.540Z,99.90
2018-09-04T21:09:44.446Z,99.90
2018-09-04T21:12:25.519Z,99.90
2018-09-04T21:14:53.880Z,99.90
2018-09-04T21:17:25.534Z,99.90
2018-09-04T21:20:07.021Z,99.90
2018-09-04T21:22:47.537Z,99.90
2018-09-04T21:25:28.234Z,99.90
2018-09-04T21:27:56.753Z,99.90
2018-09-04T21:30:37.609Z,99.90
2018-09-04T21:33:07.075Z,99.90
2018-09-04T21:35:36.547Z,99.90
2018-09-04T21:38:17.826Z,99.90
2018-09-04T21:40:58.382Z,99.90
2018-09-04T21:43:38.895Z,99.90
2018-09-04T21:46:08.114Z,99.90
2018-09-04T21:48:36.737Z,99.90
2018-09-04T21:51:05.433Z,99.90
2018-09-04T21:53:33.782Z,99.90
2018-09-04T21:56:02.096Z,99.90
2018-09-04T21:58:30.446Z,99.90
2018-09-04T22:00:58.926Z,99.90
2018-09-04T22:03:39.906Z,99.90
2018-09-04T22:06:08.711Z,99.90
2018-09-04T22:08:49.503Z,99.90
2018-09-04T22:11:18.242Z,99.90
2018-09-04T22:13:59.048Z,99.90
2018-09-04T22:16:27.420Z,99.90
2018-09-04T22:19:08.318Z,99.90
2018-09-04T22:21:36.631Z,99.90
2018-09-04T22:24:06.005Z,99.90
2018-09-04T22:26:34.655Z,99.90
2018-09-04T22:29:03.891Z,99.90
2018-09-04T22:31:44.977Z,99.90
2018-09-04T22:34:13.262Z,99.90
2018-09-04T22:36:42.011Z,99.90
2018-09-04T22:39:22.986Z,99.90
2018-09-04T22:42:03.612Z,99.90
2018-09-04T22:44:44.303Z,99.90
2018-09-04T22:47:24.823Z,99.90
2018-09-04T22:49:58.696Z,99.90
2018-09-04T22:52:39.137Z,99.90
2018-09-04T22:55:19.789Z,99.90
2018-09-04T22:57:50.034Z,99.90
2018-09-04T23:00:18.392Z,99.90
2018-09-04T23:02:46.995Z,99.90
2018-09-04T23:05:21.403Z,99.90
2018-09-04T23:07:49.780Z,99.90
2018-09-04T23:10:30.924Z,99.90
2018-09-04T23:12:59.738Z,99.90
2018-09-04T23:15:28.911Z,99.90
2018-09-04T23:17:57.248Z,99.90
2018-09-04T23:20:25.595Z,99.90
2018-09-04T23:22:53.934Z,99.90
2018-09-04T23:25:27.906Z,99.90
2018-09-04T23:27:56.236Z,99.90
2018-09-04T23:30:36.643Z,99.90
2018-09-04T23:33:05.807Z,99.90
2018-09-04T23:35:34.168Z,99.90
2018-09-04T23:38:14.898Z,99.90
2018-09-04T23:40:43.985Z,99.90
2018-09-04T23:43:14.237Z,99.90
2018-09-04T23:45:44.859Z,99.90
2018-09-04T23:48:13.795Z,99.90
2018-09-04T23:50:54.491Z,99.90
2018-09-04T23:53:22.789Z,99.90
2018-09-04T23:56:03.775Z,99.90
2018-09-04T23:58:32.180Z,99.90
